SPCL/PCL METAR and TAF weather

Enter ICAO airport designator
Station Type Date Time Source
SPCL METAR 2019/04/25 01:00 UTC NOAA

SPCL 250100Z 30003KT 9000 BKN015 BKN070 23/23 Q1014 RMK PP010


Station Type Date Time Source
SPCL Decoded METAR 2019/04/25 01:00 UTC NOAA

Pucallpa, Peru (SPCL) 08-25S 074-36W 149M
Apr 24, 2019 - 09:00 PM EDT / 2019.04.25 0100 UTC
Wind: from the WNW (300 degrees) at 3 MPH (3 KT):0
Visibility: 5 mile(s):0
Sky conditions: mostly cloudy
Temperature: 73 F (23 C)
Dew Point: 73 F (23 C)
Relative Humidity: 100%
Pressure (altimeter): 29.94 in. Hg (1014 hPa)
ob: SPCL 250100Z 30003KT 9000 BKN015 BKN070 23/23 Q1014 RMK PP010
cycle: 1

Station Type Date Time Source
SPCL TAF 2019/04/24 18:33 UTC NOAA

TAF SPCL 241700Z 2418/2518 VRB02KT 9999 BKN015 BKN080 TX25/2419Z TN23/2511Z
TEMPO 2418/2421 5000 RADZ BKN010 BKN070
BECMG 2500/2503 SCT017
TEMPO 2509/2512 7000 BKN010 BKN080

Example: see airport list